Time;durP1;ratioP1;P1;durP2;ratioP2;P2;SDS_P1;SDS_P2;PMS_P1;PMS_P2;Temp;Humidity;BMP_temperature;BMP_pressure;BME280_temperature;BME280_humidity;BME280_pressure;Samples;Min_cycle;Max_cycle;Signal;HPM_P1;HPM_P2
2022/10/17 00:01:19;;;;;;;12.00;7.53;;;10.70;1.00;;;11.18;100.00;100028.03;5013702;28;119446;-74
2022/10/17 00:03:48;;;;;;;11.13;7.80;;;10.60;1.70;;;11.19;100.00;100032.34;5021116;28;130524;-74
2022/10/17 00:06:17;;;;;;;12.10;7.65;;;10.50;5.70;;;11.11;100.00;100033.84;5002814;28;128934;-74
2022/10/17 00:08:47;;;;;;;16.10;8.10;;;10.50;14.70;;;11.12;100.00;100043.63;5005648;28;121356;-73
2022/10/17 00:11:18;;;;;;;11.30;8.18;;;10.40;21.90;;;11.08;100.00;100043.44;5004222;28;121456;-75
2022/10/17 00:13:47;;;;;;;17.27;8.73;;;10.40;30.90;;;11.03;100.00;100035.38;5006118;28;129537;-75
2022/10/17 00:16:23;;;;;;;13.02;8.23;;;10.40;46.30;;;10.96;100.00;100045.84;5021109;28;129496;-74
2022/10/17 00:18:52;;;;;;;12.90;7.63;;;10.30;54.40;;;10.84;100.00;100034.66;5021446;28;120021;-73
2022/10/17 00:21:21;;;;;;;10.82;7.45;;;10.30;71.90;;;10.84;100.00;100031.94;5003061;28;119596;-74
2022/10/17 00:23:52;;;;;;;11.77;7.65;;;10.30;70.20;;;10.85;100.00;100030.84;5020749;28;130087;-74
2022/10/17 00:26:21;;;;;;;12.55;8.52;;;10.20;84.50;;;10.77;100.00;100026.91;5021413;28;129934;-73
2022/10/17 00:28:52;;;;;;;11.63;8.32;;;10.20;89.60;;;10.69;100.00;100022.16;5021425;28;119351;-75
2022/10/17 00:31:23;;;;;;;12.20;8.52;;;10.10;90.40;;;10.70;100.00;100016.44;5021217;28;120215;-74
2022/10/17 00:33:52;;;;;;;14.82;8.35;;;10.10;89.50;;;10.63;100.00;100026.88;5001907;28;130419;-76
2022/10/17 00:36:24;;;;;;;13.70;8.40;;;10.10;81.60;;;10.59;100.00;100026.66;5021196;28;129598;-75
2022/10/17 00:38:57;;;;;;;12.48;8.15;;;10.10;89.40;;;10.49;100.00;100017.91;5020421;28;120028;-74
2022/10/17 00:41:30;;;;;;;11.93;7.90;;;10.10;89.50;;;10.43;100.00;100036.97;5004387;28;119246;-75
2022/10/17 00:44:02;;;;;;;13.65;7.85;;;10.10;75.00;;;10.47;100.00;100033.69;5022481;28;129862;-74
2022/10/17 00:46:33;;;;;;;11.77;7.05;;;10.00;82.30;;;10.43;100.00;100042.41;4989066;28;128233;-75
2022/10/17 00:49:06;;;;;;;12.90;7.93;;;10.00;88.30;;;10.36;100.00;100033.88;5022361;28;119705;-76
2022/10/17 00:51:40;;;;;;;12.40;8.35;;;10.00;81.60;;;10.37;100.00;100040.88;5021821;28;119248;-74
2022/10/17 00:54:11;;;;;;;13.35;8.15;;;10.00;73.50;;;10.43;100.00;100045.13;5002166;28;131073;-75
2022/10/17 00:56:40;;;;;;;14.05;7.78;;;10.00;71.90;;;10.46;100.00;100051.06;5003676;28;129557;-75
2022/10/17 00:59:11;;;;;;;12.70;7.90;;;10.00;62.90;;;10.42;100.00;100054.38;5022011;28;123198;-75
2022/10/17 01:01:41;;;;;;;11.07;8.25;;;10.00;66.60;;;10.37;100.00;100051.72;5004825;28;121966;-75
2022/10/17 01:04:10;;;;;;;14.50;8.15;;;10.00;63.60;;;10.37;100.00;100050.94;5008095;28;128175;-74
2022/10/17 01:06:41;;;;;;;12.07;7.88;;;10.10;55.70;;;10.41;100.00;100047.34;5020819;28;129876;-75
2022/10/17 01:09:11;;;;;;;14.38;9.13;;;10.10;51.20;;;10.47;100.00;100039.09;5003104;28;119673;-74
2022/10/17 01:11:50;;;;;;;14.23;7.88;;;10.10;51.40;;;10.43;100.00;100031.56;5020709;28;119486;-75
2022/10/17 01:14:29;;;;;;;12.75;7.43;;;10.00;68.10;;;10.38;100.00;100026.22;5018896;28;129951;-75
2022/10/17 01:17:06;;;;;;;15.95;8.38;;;10.00;62.80;;;10.36;100.00;100031.16;5020974;28;130289;-74
2022/10/17 01:19:50;;;;;;;;;;;10.00;68.50;;;10.29;100.00;100038.81;5003247;28;120119;-74
2022/10/17 01:22:24;;;;;;;12.48;7.95;;;10.00;68.10;;;10.28;100.00;100044.53;5003449;28;119660;-74
2022/10/17 01:25:28;;;;;;;11.50;7.63;;;10.00;48.70;;;10.37;100.00;100056.38;5001193;28;130000;-75
2022/10/17 01:28:26;;;;;;;13.63;7.63;;;10.10;46.10;;;10.46;100.00;100053.78;5002269;28;129681;-74
2022/10/17 01:31:03;;;;;;;;;;;10.10;41.20;;;10.47;100.00;100045.34;5021239;28;119575;-74
2022/10/17 01:33:47;;;;;;;13.05;7.88;;;10.10;51.10;;;10.49;100.00;100047.78;5006987;28;119824;-74
2022/10/17 01:36:29;;;;;;;12.95;8.48;;;10.20;43.30;;;10.55;100.00;100047.38;4989267;28;128266;-75
2022/10/17 01:39:03;;;;;;;14.52;7.70;;;10.20;43.40;;;10.65;100.00;100053.72;5019811;28;129498;-74
2022/10/17 01:41:41;;;;;;;13.13;8.13;;;10.20;34.50;;;10.63;100.00;100045.88;5007263;28;119232;-73
2022/10/17 01:44:14;;;;;;;14.57;7.63;;;10.30;28.70;;;10.70;100.00;100035.44;5002993;28;119386;-74
2022/10/17 01:46:49;;;;;;;11.55;8.18;;;10.30;30.00;;;10.72;100.00;100035.97;5019982;28;130127;-73
2022/10/17 01:49:22;;;;;;;12.63;8.73;;;10.30;37.60;;;10.71;100.00;100045.19;4988346;28;128938;-74
2022/10/17 01:51:57;;;;;;;13.48;8.18;;;10.30;45.90;;;10.64;100.00;100033.91;5018627;28;122600;-74
2022/10/17 01:54:31;;;;;;;14.35;9.05;;;10.20;46.60;;;10.53;100.00;100035.19;5018640;28;121894;-74
2022/10/17 01:57:05;;;;;;;14.55;8.13;;;10.10;47.60;;;10.45;100.00;100046.75;5021335;28;129728;-74
2022/10/17 01:59:41;;;;;;;12.75;8.73;;;10.00;53.90;;;10.36;100.00;100039.28;5019738;27;129960;-75
2022/10/17 02:02:14;;;;;;;12.40;9.05;;;10.00;55.90;;;10.36;100.00;100050.16;5025490;28;119183;-74
2022/10/17 02:04:44;;;;;;;19.00;8.48;;;9.90;59.90;;;10.36;100.00;100049.31;5005647;28;118961;-75
2022/10/17 02:07:13;;;;;;;16.60;9.15;;;9.90;66.40;;;10.35;100.00;100056.66;5005226;28;130539;-75
2022/10/17 02:09:42;;;;;;;12.45;8.02;;;9.90;65.10;;;10.38;100.00;100047.13;5023967;28;129456;-75
2022/10/17 02:12:35;;;;;;;12.20;8.43;;;10.00;60.40;;;10.46;100.00;100045.66;5008301;28;119425;-75
2022/10/17 02:15:38;;;;;;;14.45;8.48;;;10.00;58.30;;;10.50;100.00;100033.09;5005124;28;119404;-75
2022/10/17 02:18:27;;;;;;;11.82;7.90;;;10.10;61.50;;;10.54;100.00;100034.91;5021883;28;129822;-74
2022/10/17 02:21:03;;;;;;;18.90;9.27;;;10.10;58.60;;;10.54;100.00;100039.53;5023208;28;130182;-74
2022/10/17 02:23:38;;;;;;;14.25;8.45;;;10.10;50.80;;;10.55;100.00;100030.28;5008406;28;118926;-74
2022/10/17 02:26:16;;;;;;;14.40;9.00;;;10.10;52.50;;;10.54;100.00;100034.91;5022972;28;119450;-73
2022/10/17 02:28:52;;;;;;;15.25;8.80;;;10.20;56.70;;;10.63;100.00;100031.50;5008234;28;129613;-75
2022/10/17 02:31:26;;;;;;;14.45;8.70;;;10.20;54.40;;;10.67;100.00;100021.66;5004777;28;130035;-75
2022/10/17 02:34:01;;;;;;;15.27;8.50;;;10.20;50.20;;;10.66;100.00;100034.44;5022986;28;119508;-74
2022/10/17 02:36:38;;;;;;;15.87;8.40;;;10.30;46.60;;;10.63;100.00;100032.31;5005576;28;119548;-74
2022/10/17 02:39:09;;;;;;;14.38;9.00;;;10.30;43.30;;;10.70;100.00;100038.16;4991273;28;128991;-73
2022/10/17 02:41:40;;;;;;;13.05;8.48;;;10.40;38.80;;;10.71;100.00;100034.34;5022397;28;129490;-75
2022/10/17 02:44:10;;;;;;;15.43;8.80;;;10.40;42.60;;;10.79;100.00;100030.91;5006502;28;120897;-75
2022/10/17 02:46:41;;;;;;;12.55;8.32;;;10.40;38.60;;;10.80;100.00;100026.31;5022659;28;121660;-72
2022/10/17 02:49:18;;;;;;;16.55;8.80;;;10.40;37.90;;;10.74;100.00;100032.94;5004635;28;129862;-73
2022/10/17 02:51:57;;;;;;;13.93;8.23;;;10.40;31.10;;;10.74;100.00;100039.16;5007260;28;129247;-75
2022/10/17 02:54:34;;;;;;;15.98;8.63;;;10.50;31.90;;;10.86;100.00;100040.59;5004493;28;119656;-74
2022/10/17 02:57:09;;;;;;;;;;;10.50;31.40;;;10.88;100.00;100049.25;5008336;28;119219;-75
2022/10/17 02:59:41;;;;;;;13.60;8.70;;;10.50;27.80;;;10.89;100.00;100040.81;5007384;28;129919;-74
2022/10/17 03:02:10;;;;;;;13.43;8.70;;;10.50;29.10;;;10.92;100.00;100039.38;4991451;28;128162;-74
2022/10/17 03:04:45;;;;;;;13.38;9.10;;;10.60;24.30;;;10.95;100.00;100042.31;5022600;28;119584;-75
2022/10/17 03:07:14;;;;;;;13.13;8.80;;;10.60;24.60;;;11.00;100.00;100046.03;5007618;28;119906;-74
2022/10/17 03:09:42;;;;;;;14.43;9.50;;;10.60;28.20;;;11.03;100.00;100040.81;5003795;28;129905;-75
2022/10/17 03:12:11;;;;;;;13.13;8.90;;;10.60;23.20;;;11.06;100.00;100056.50;5004305;28;129287;-76
2022/10/17 03:14:40;;;;;;;13.95;8.95;;;10.70;27.30;;;11.03;100.00;100056.28;5007491;28;119745;-74
2022/10/17 03:17:10;;;;;;;14.57;9.07;;;10.60;29.50;;;11.05;100.00;100054.91;5004231;28;119867;-76
2022/10/17 03:19:40;;;;;;;18.45;9.20;;;10.70;27.80;;;11.11;100.00;100053.69;5007090;28;130058;-75
2022/10/17 03:22:09;;;;;;;14.23;8.73;;;10.70;25.30;;;11.15;100.00;100054.69;5021957;28;129397;-75
2022/10/17 03:24:38;;;;;;;12.15;8.30;;;10.70;26.60;;;11.17;100.00;100048.16;4990255;28;119604;-74
2022/10/17 03:27:06;;;;;;;12.15;8.65;;;10.70;25.30;;;11.19;100.00;100051.38;5007311;28;119143;-74
2022/10/17 03:29:35;;;;;;;13.43;8.95;;;10.70;28.60;;;11.22;100.00;100064.34;5007183;28;129999;-74
2022/10/17 03:32:05;;;;;;;13.15;8.90;;;10.70;26.10;;;11.19;100.00;100067.66;5007222;28;128615;-75
2022/10/17 03:34:35;;;;;;;14.15;9.02;;;10.70;29.80;;;11.19;100.00;100064.94;4988752;28;121714;-75
2022/10/17 03:37:05;;;;;;;13.20;9.70;;;10.70;28.00;;;11.17;100.00;100078.81;5021970;28;122337;-75
2022/10/17 03:39:36;;;;;;;15.05;9.13;;;10.70;30.00;;;11.19;100.00;100075.81;4989041;28;128598;-75
2022/10/17 03:42:04;;;;;;;15.68;8.95;;;10.70;28.80;;;11.22;100.00;100080.66;4990149;28;128746;-74
2022/10/17 03:44:34;;;;;;;16.52;9.35;;;10.70;24.90;;;11.28;100.00;100096.56;5006502;28;119853;-74
2022/10/17 03:47:02;;;;;;;14.55;8.63;;;10.80;24.40;;;11.29;100.00;100097.38;5022918;28;119432;-75
2022/10/17 03:49:31;;;;;;;17.30;9.40;;;10.80;19.40;;;11.30;100.00;100096.25;4990146;28;129057;-75
2022/10/17 03:52:00;;;;;;;13.18;8.75;;;10.80;23.10;;;11.30;100.00;100098.97;5021652;28;129740;-76
2022/10/17 03:54:31;;;;;;;15.23;9.18;;;10.80;23.30;;;11.35;100.00;100098.88;5004306;28;119789;-75
2022/10/17 03:56:59;;;;;;;15.27;9.48;;;10.80;27.30;;;11.36;100.00;100097.78;5004820;28;119245;-74
2022/10/17 03:59:28;;;;;;;17.13;9.65;;;10.80;29.30;;;11.35;100.00;100090.72;4987416;28;129631;-75
2022/10/17 04:02:04;;;;;;;14.43;9.20;;;10.80;30.90;;;11.37;100.00;100093.94;4989521;28;128846;-74
2022/10/17 04:04:33;;;;;;;12.95;9.35;;;10.80;31.00;;;11.41;100.00;100094.16;4989717;28;119281;-74
2022/10/17 04:07:01;;;;;;;15.60;9.82;;;10.90;38.00;;;11.39;100.00;100089.03;5003558;28;120175;-74
2022/10/17 04:09:33;;;;;;;14.43;9.15;;;10.90;37.00;;;11.43;100.00;100098.16;5005476;28;129818;-74
2022/10/17 04:12:07;;;;;;;15.40;9.55;;;10.90;40.10;;;11.43;100.00;100098.16;5005121;28;129368;-73
2022/10/17 04:14:39;;;;;;;16.15;10.38;;;10.90;44.70;;;11.41;100.00;100099.59;5002841;28;119833;-74
2022/10/17 04:17:07;;;;;;;15.10;10.02;;;10.90;49.10;;;11.40;100.00;100104.19;5003718;28;120156;-73
2022/10/17 04:19:37;;;;;;;17.67;10.40;;;10.90;51.60;;;11.35;100.00;100101.59;5005903;28;129541;-75
2022/10/17 04:22:07;;;;;;;17.30;10.77;;;10.80;56.40;;;11.31;100.00;100101.41;5003952;28;129352;-75
2022/10/17 04:24:40;;;;;;;13.45;9.43;;;10.80;56.10;;;11.29;100.00;100097.38;5002072;28;122476;-73
2022/10/17 04:27:26;;;;;;;17.33;10.82;;;10.80;54.70;;;11.21;100.00;100103.50;5003079;28;121635;-72
2022/10/17 04:29:55;;;;;;;17.08;9.88;;;10.70;62.80;;;11.12;100.00;100092.53;5005338;28;130475;-74
2022/10/17 04:32:26;;;;;;;14.55;9.77;;;10.70;66.70;;;11.05;100.00;100095.63;5001221;28;129573;-76
2022/10/17 04:35:10;;;;;;;16.48;9.80;;;10.70;68.30;;;11.05;100.00;100094.84;4989059;28;119768;-74
2022/10/17 04:37:41;;;;;;;18.45;9.85;;;10.70;71.00;;;11.09;100.00;100102.06;5006095;28;119334;-75
2022/10/17 04:40:18;;;;;;;15.00;10.07;;;10.70;70.30;;;11.06;100.00;100105.38;5002234;28;131671;-75
2022/10/17 04:42:47;;;;;;;21.45;10.20;;;10.60;69.10;;;11.07;100.00;100101.56;5003759;28;130046;-75
2022/10/17 04:45:22;;;;;;;15.98;10.43;;;10.70;66.00;;;11.07;100.00;100098.84;5002167;28;119639;-74
2022/10/17 04:47:54;;;;;;;18.42;10.75;;;10.70;66.20;;;11.08;100.00;100107.78;4989310;28;118735;-74
2022/10/17 04:50:23;;;;;;;17.40;10.80;;;10.70;69.30;;;11.06;100.00;100113.53;5019166;28;130401;-75
2022/10/17 04:53:11;;;;;;;17.10;10.75;;;10.60;73.30;;;11.04;100.00;100107.59;5022568;28;129552;-74
2022/10/17 04:55:41;;;;;;;17.42;10.98;;;10.60;73.60;;;11.10;100.00;100122.69;5005960;28;119191;-75
2022/10/17 04:58:10;;;;;;;15.32;10.60;;;10.60;80.20;;;11.08;100.00;100119.50;5002877;28;118547;-74
2022/10/17 05:00:39;;;;;;;17.25;10.95;;;10.70;89.90;;;11.14;100.00;100131.03;4989147;28;129264;-73
2022/10/17 05:03:20;;;;;;;23.85;14.32;;;10.80;80.20;;;11.25;100.00;100128.94;5002368;28;129660;-75
2022/10/17 05:05:49;;;;;;;20.15;13.38;;;10.80;78.50;;;11.33;100.00;100133.72;4989098;28;118955;-75
2022/10/17 05:08:18;;;;;;;21.05;12.43;;;10.90;75.20;;;11.39;100.00;100127.06;4989578;28;118602;-76
2022/10/17 05:10:48;;;;;;;19.60;10.82;;;10.90;78.30;;;11.39;100.00;100129.78;5004743;28;129848;-75
2022/10/17 05:13:16;;;;;;;16.90;11.13;;;11.00;77.50;;;11.46;100.00;100132.09;5001542;28;130811;-75
2022/10/17 05:15:45;;;;;;;15.63;11.27;;;11.00;80.70;;;11.51;100.00;100138.25;5019416;28;122498;-75
2022/10/17 05:18:14;;;;;;;16.95;12.10;;;11.00;77.40;;;11.64;100.00;100135.78;5005402;28;121122;-74
2022/10/17 05:20:45;;;;;;;18.95;11.05;;;11.10;76.00;;;11.72;100.00;100135.13;5002271;28;130110;-74
2022/10/17 05:23:13;;;;;;;17.02;11.43;;;11.10;76.80;;;11.74;100.00;100130.16;5005232;28;129259;-75
2022/10/17 05:25:44;;;;;;;26.02;12.00;;;11.20;80.10;;;11.79;100.00;100131.97;5002112;28;119676;-74
2022/10/17 05:28:15;;;;;;;19.75;12.52;;;11.20;76.70;;;11.77;100.00;100140.44;5005273;28;119154;-74
2022/10/17 05:30:44;;;;;;;22.65;11.82;;;11.20;77.20;;;11.82;100.00;100147.69;5001443;28;130147;-74
2022/10/17 05:33:13;;;;;;;15.65;11.10;;;11.30;75.20;;;11.86;100.00;100154.94;5005025;28;128689;-75
2022/10/17 05:35:42;;;;;;;19.00;12.55;;;11.30;69.40;;;11.97;100.00;100147.41;4988740;28;118508;-74
2022/10/17 05:38:10;;;;;;;18.17;11.38;;;11.30;70.20;;;11.98;100.00;100150.91;4987954;28;118526;-74
2022/10/17 05:40:41;;;;;;;20.02;12.18;;;11.40;69.90;;;12.02;100.00;100155.44;4986711;28;128970;-76
2022/10/17 05:43:09;;;;;;;21.63;12.07;;;11.40;70.10;;;12.11;100.00;100155.53;5004871;28;129252;-74
2022/10/17 05:45:39;;;;;;;19.08;12.80;;;11.40;63.20;;;12.17;100.00;100164.38;5001448;28;119728;-74
2022/10/17 05:48:12;;;;;;;18.33;11.80;;;11.50;63.60;;;12.18;100.00;100183.13;5005001;28;119183;-75
2022/10/17 05:50:41;;;;;;;20.65;13.05;;;11.50;64.10;;;12.15;100.00;100178.28;5001395;28;129925;-75
2022/10/17 05:53:14;;;;;;;16.67;10.80;;;11.50;59.10;;;12.20;100.00;100180.91;5004634;28;129051;-75
2022/10/17 05:55:57;;;;;;;17.77;12.35;;;11.50;63.50;;;12.23;100.00;100174.84;5001660;28;119390;-75
2022/10/17 05:58:25;;;;;;;16.92;11.40;;;11.50;63.20;;;12.25;100.00;100188.16;5020099;28;119634;-75
2022/10/17 06:01:04;;;;;;;15.32;11.27;;;11.50;65.20;;;12.19;100.00;100205.72;5019547;28;130592;-74
2022/10/17 06:03:33;;;;;;;21.17;13.23;;;11.50;69.10;;;12.16;100.00;100204.38;5004548;28;128964;-74
2022/10/17 06:06:08;;;;;;;17.67;11.90;;;11.40;73.10;;;12.18;100.00;100209.53;5000456;28;122377;-74
2022/10/17 06:08:39;;;;;;;17.40;12.18;;;11.50;72.10;;;12.26;100.00;100210.72;5004673;28;120935;-74
2022/10/17 06:11:12;;;;;;;19.10;12.20;;;11.50;72.40;;;12.35;100.00;100225.22;5004245;28;129652;-74
2022/10/17 06:13:41;;;;;;;25.27;12.98;;;11.60;69.20;;;12.38;100.00;100230.06;5001177;28;130468;-74
2022/10/17 06:16:17;;;;;;;20.83;12.50;;;11.60;68.20;;;12.45;100.00;100224.19;4987537;28;118715;-73
2022/10/17 06:18:46;;;;;;;18.67;12.50;;;11.70;64.80;;;12.50;100.00;100227.63;4987860;28;118262;-74
2022/10/17 06:21:19;;;;;;;19.10;13.48;;;11.70;59.90;;;12.44;100.00;100228.84;4987598;28;129107;-74
2022/10/17 06:23:51;;;;;;;19.27;12.80;;;11.80;57.40;;;12.53;100.00;100224.28;5001519;28;129540;-74
2022/10/17 06:26:46;;;;;;;19.38;13.90;;;11.90;53.20;;;12.64;100.00;100232.22;5001231;28;118573;-75
2022/10/17 06:29:17;;;;;;;23.00;15.38;;;11.90;57.90;;;12.69;100.00;100234.81;5005296;28;119239;-74
2022/10/17 06:31:53;;;;;;;21.38;13.38;;;12.00;60.50;;;12.72;100.00;100239.66;5000294;28;129907;-73
2022/10/17 06:34:22;;;;;;;21.85;14.43;;;12.00;66.60;;;12.75;100.00;100239.03;5004316;28;128935;-74
2022/10/17 06:36:50;;;;;;;21.95;13.27;;;12.00;66.60;;;12.90;100.00;100240.59;5001563;28;119497;-74
2022/10/17 06:39:20;;;;;;;24.30;13.75;;;12.10;71.60;;;12.98;100.00;100236.31;4987476;28;118649;-72
2022/10/17 06:42:08;;;;;;;23.42;14.55;;;12.20;62.10;;;13.02;100.00;100242.75;5001042;28;130022;-73
2022/10/17 06:44:56;;;;;;;26.30;13.45;;;12.20;69.10;;;13.11;100.00;100235.47;4988464;28;129020;-73
2022/10/17 06:47:39;;;;;;;21.60;13.70;;;12.30;60.30;;;13.12;100.00;100243.31;5005203;28;119711;-72
2022/10/17 06:50:30;;;;;;;26.77;13.75;;;12.30;60.60;;;13.26;100.00;100256.88;5006940;28;118685;-73
2022/10/17 06:53:14;;;;;;;24.80;15.02;;;12.40;60.00;;;13.26;100.00;100248.72;4990819;28;130429;-74
2022/10/17 06:56:07;;;;;;;24.23;15.05;;;12.40;62.90;;;13.46;100.00;100252.88;5013717;28;129941;-73
2022/10/17 06:58:50;;;;;;;22.02;13.75;;;12.50;60.10;;;13.57;100.00;100258.88;5006403;28;122291;-73
2022/10/17 07:01:33;;;;;;;30.38;14.75;;;12.50;57.40;;;13.63;100.00;100254.88;4990887;28;121147;-73
2022/10/17 07:04:04;;;;;;;22.55;14.20;;;12.60;54.90;;;13.65;100.00;100260.81;5007328;28;129527;-73
2022/10/17 07:06:33;;;;;;;33.60;16.42;;;12.60;56.00;;;13.65;100.00;100265.47;4990706;28;129358;-74
2022/10/17 07:09:08;;;;;;;28.58;14.85;;;12.60;64.00;;;13.60;100.00;100271.88;5007641;28;119169;-73
2022/10/17 07:11:39;;;;;;;29.50;15.43;;;12.70;64.50;;;13.63;100.00;100271.25;5004609;28;119901;-74
2022/10/17 07:14:07;;;;;;;28.15;16.20;;;12.70;63.80;;;13.70;100.00;100278.16;4990553;28;129789;-73
2022/10/17 07:16:36;;;;;;;28.60;15.43;;;12.70;65.20;;;13.70;100.00;100278.97;5004290;28;129930;-72
2022/10/17 07:19:16;;;;;;;34.25;17.58;;;12.70;56.10;;;13.82;100.00;100276.47;4990755;28;119613;-74
2022/10/17 07:21:44;;;;;;;25.85;14.95;;;12.90;65.40;;;13.90;100.00;100277.63;5007450;28;118244;-73
2022/10/17 07:24:14;;;;;;;26.75;15.05;;;12.80;58.10;;;14.09;100.00;100290.22;4987297;28;129375;-74
2022/10/17 07:26:47;;;;;;;27.30;15.95;;;13.00;56.10;;;14.28;98.79;100298.94;5006504;28;128790;-73
2022/10/17 07:29:16;;;;;;;24.83;15.02;;;13.10;38.90;;;14.54;98.30;100290.03;4988709;28;119212;-72
2022/10/17 07:31:50;;;;;;;26.58;14.77;;;13.30;44.10;;;14.49;97.80;100290.16;4983957;28;120683;-73
2022/10/17 07:34:21;;;;;;;24.50;15.57;;;13.30;33.50;;;14.48;98.00;100283.09;4986787;28;130639;-75
2022/10/17 07:36:51;;;;;;;24.35;15.73;;;13.30;36.90;;;14.60;97.67;100287.91;4983600;28;130606;-74
2022/10/17 07:39:20;;;;;;;26.67;15.32;;;13.40;30.00;;;14.90;96.87;100289.75;4983821;28;119642;-73
2022/10/17 07:41:50;;;;;;;26.95;15.63;;;13.70;31.60;;;15.17;94.96;100284.28;4984235;28;119360;-73
2022/10/17 07:44:20;;;;;;;26.25;16.08;;;13.80;14.30;;;15.33;94.46;100298.25;5003266;28;129881;-72
2022/10/17 07:46:51;;;;;;;27.83;15.77;;;14.00;13.80;;;15.17;94.51;100311.63;4983091;28;129898;-73
2022/10/17 07:49:21;;;;;;;26.95;16.05;;;13.80;19.80;;;15.22;94.46;100314.19;4982538;28;122340;-74
2022/10/17 07:51:50;;;;;;;30.98;18.23;;;13.80;13.70;;;15.26;94.37;100305.00;5001660;28;121818;-74
2022/10/17 07:54:19;;;;;;;24.38;16.23;;;13.80;14.50;;;15.52;93.81;100309.66;5001074;28;130728;-73
2022/10/17 07:56:49;;;;;;;25.02;16.20;;;14.10;14.10;;;15.63;92.92;100313.66;5000129;28;129674;-73
2022/10/17 07:59:19;;;;;;;27.88;15.57;;;14.20;2.80;;;15.81;91.92;100314.41;5001194;28;119391;-73
2022/10/17 08:01:47;;;;;;;31.65;15.95;;;14.20;2.50;;;15.91;92.07;100312.44;4983636;28;119484;-73
2022/10/17 08:04:16;;;;;;;28.30;15.77;;;14.40;8.90;;;15.90;91.93;100316.34;5001037;28;129813;-72
2022/10/17 08:06:46;;;;;;;27.23;17.27;;;14.40;1.00;;;15.88;91.94;100302.97;4982288;28;129797;-73
2022/10/17 08:09:15;;;;;;;26.52;16.65;;;14.40;4.20;;;15.89;92.16;100306.50;5001683;28;119990;-73
2022/10/17 08:11:43;;;;;;;29.27;17.17;;;14.40;8.00;;;15.78;93.21;100306.06;5001223;28;119550;-72
2022/10/17 08:14:13;;;;;;;29.52;17.63;;;14.40;9.10;;;15.76;94.30;100300.09;4999581;28;129806;-74
2022/10/17 08:16:42;;;;;;;29.40;17.92;;;14.40;16.20;;;15.74;95.33;100285.94;5000932;28;129906;-74
2022/10/17 08:19:11;;;;;;;30.13;17.83;;;14.20;25.10;;;15.94;94.99;100296.19;5000828;28;119618;-74
2022/10/17 08:21:40;;;;;;;31.25;18.50;;;14.50;30.30;;;16.06;94.48;100298.22;5001108;28;119925;-74
2022/10/17 08:24:10;;;;;;;30.92;17.58;;;14.60;20.50;;;16.21;93.62;100293.34;4984616;28;129477;-74
2022/10/17 08:26:38;;;;;;;31.67;17.00;;;14.40;28.20;;;16.11;94.47;100294.50;4982763;28;131632;-72
2022/10/17 08:29:12;;;;;;;29.73;18.58;;;14.40;32.00;;;16.20;94.70;100297.22;5000705;28;119592;-72
2022/10/17 08:31:40;;;;;;;30.02;18.60;;;14.50;36.40;;;16.08;95.59;100301.47;5000639;28;119794;-73
2022/10/17 08:34:09;;;;;;;33.17;19.27;;;14.40;45.10;;;16.06;96.15;100300.97;5000559;28;129938;-72
2022/10/17 08:36:37;;;;;;;28.88;18.48;;;14.40;51.30;;;15.99;97.15;100308.91;5000611;28;130072;-72
2022/10/17 08:39:06;;;;;;;32.08;18.02;;;14.60;50.30;;;16.05;96.97;100302.13;4999364;28;121914;-74
2022/10/17 08:41:59;;;;;;;30.05;17.65;;;14.70;45.80;;;16.09;96.76;100296.78;5000666;28;121885;-72
2022/10/17 08:44:42;;;;;;;24.83;17.15;;;14.70;37.00;;;16.39;96.24;100299.53;4985523;28;129637;-73
2022/10/17 08:47:16;;;;;;;31.17;17.73;;;15.00;28.70;;;16.65;94.22;100302.09;4996608;28;129446;-73
2022/10/17 08:49:51;;;;;;;30.75;18.00;;;15.20;24.70;;;16.86;92.96;100302.13;4966326;28;118311;-72
2022/10/17 08:52:29;;;;;;;28.52;18.13;;;15.30;17.90;;;16.74;93.35;100321.25;4980750;28;119706;-73
2022/10/17 08:54:58;;;;;;;28.33;19.33;;;15.20;13.80;;;16.70;94.71;100321.06;4959363;28;129610;-72
2022/10/17 08:57:29;;;;;;;30.70;17.75;;;15.00;49.20;;;16.81;92.86;100322.31;4966798;28;106369;-72
2022/10/17 08:59:57;;;;;;;29.35;19.98;;;15.30;13.80;;;17.08;91.80;100320.19;4980736;28;120023;-74
2022/10/17 09:02:50;;;;;;;32.42;18.60;;;15.40;12.90;;;17.17;91.42;100323.66;4962700;28;119934;-72
2022/10/17 09:05:41;;;;;;;29.77;20.20;;;15.40;13.40;;;16.62;93.77;100320.00;4979594;28;130929;-75
2022/10/17 09:08:31;;;;;;;26.85;18.15;;;14.80;41.30;;;16.53;94.81;100333.78;4979496;28;130089;-74
2022/10/17 09:11:09;;;;;;;26.83;18.98;;;14.90;40.40;;;16.27;96.19;100330.38;4990121;28;119668;-73
2022/10/17 09:13:57;;;;;;;29.23;19.45;;;14.80;42.80;;;16.29;97.27;100334.38;4999637;28;119499;-73
2022/10/17 09:16:55;;;;;;;29.55;19.35;;;15.00;41.60;;;16.23;98.20;100326.66;4949018;28;129751;-72
2022/10/17 09:19:28;;;;;;;25.27;17.75;;;14.90;46.10;;;16.59;97.28;100322.59;4978434;28;129845;-71
2022/10/17 09:22:02;;;;;;;27.30;18.00;;;15.40;32.40;;;16.71;94.41;100314.47;4980482;28;119509;-71
2022/10/17 09:24:42;;;;;;;26.02;17.45;;;15.40;12.10;;;16.92;94.15;100316.44;4966038;28;119258;-71
2022/10/17 09:27:22;;;;;;;22.85;15.88;;;15.60;11.90;;;17.15;92.16;100319.66;4979724;28;130040;-73
2022/10/17 09:30:11;;;;;;;32.60;18.55;;;15.90;1.00;;;17.42;91.35;100329.22;4982386;28;129396;-74
2022/10/17 09:32:41;;;;;;;26.55;17.70;;;16.20;1.00;;;17.54;90.18;100321.03;4981533;28;122034;-72
2022/10/17 09:35:13;;;;;;;28.15;18.83;;;16.20;1.00;;;17.55;89.37;100330.09;4980973;28;122184;-73
2022/10/17 09:37:43;;;;;;;26.55;18.00;;;16.10;1.00;;;17.74;89.13;100318.59;4999565;28;129947;-73
2022/10/17 09:40:24;;;;;;;27.92;18.73;;;16.30;1.00;;;17.60;88.53;100325.19;4999773;28;129068;-75
2022/10/17 09:42:53;;;;;;;27.38;18.35;;;16.30;1.00;;;17.88;89.14;100324.59;5000040;28;119660;-71
2022/10/17 09:45:25;;;;;;;27.60;17.52;;;16.50;1.00;;;18.09;86.41;100324.53;4999890;28;119422;-72
2022/10/17 09:48:04;;;;;;;25.83;18.33;;;16.60;1.00;;;17.96;86.46;100336.63;5013519;28;131075;-73
2022/10/17 09:50:35;;;;;;;23.80;17.45;;;16.50;1.00;;;17.93;86.62;100340.03;5019869;28;130143;-72
2022/10/17 09:53:12;;;;;;;24.20;17.25;;;16.30;1.00;;;17.85;86.55;100341.72;5020384;28;119697;-73
2022/10/17 09:55:44;;;;;;;25.85;17.17;;;16.20;1.00;;;17.74;85.89;100346.03;5020164;28;119402;-72
2022/10/17 09:58:13;;;;;;;29.13;16.70;;;16.10;1.00;;;17.86;85.43;100346.06;5000274;28;130338;-72
2022/10/17 10:00:47;;;;;;;21.38;15.93;;;16.40;1.00;;;17.94;84.30;100350.69;5004767;28;129343;-73
2022/10/17 10:03:20;;;;;;;19.73;13.95;;;16.30;1.00;;;18.01;83.92;100349.31;5002033;28;119610;-73
2022/10/17 10:06:02;;;;;;;23.67;15.25;;;16.50;1.00;;;18.08;83.77;100339.38;5011738;28;120945;-74
2022/10/17 10:08:34;;;;;;;24.60;14.93;;;16.70;1.00;;;18.27;82.38;100336.06;4988520;28;128810;-73
2022/10/17 10:11:07;;;;;;;21.40;14.15;;;16.80;1.00;;;18.41;81.42;100340.44;5019409;28;129744;-73
2022/10/17 10:13:36;;;;;;;20.70;14.05;;;17.00;1.00;;;18.47;81.26;100337.09;5019285;28;120094;-73
2022/10/17 10:16:20;;;;;;;20.75;14.15;;;17.10;1.00;;;18.34;80.25;100335.53;5019079;28;119561;-74
2022/10/17 10:18:49;;;;;;;19.55;13.35;;;17.00;1.00;;;18.16;82.30;100323.94;5018981;28;129921;-73